Terminal Aerodrome Forecast
Issued by NWS

Home | Current Version | Previous Version | Text Only | Print | Product List | Glossary On
Versions: 1 2 3 4 5 6 7 8 9 10 11 12
000
FTUS44 KTSA 041720
TAFXNA
TAF
KXNA 041720Z 0418/0518 16008KT P6SM SKC
     FM050300 16003KT P6SM FEW250
     FM051500 16007KT P6SM SCT050=

USA.gov is the U.S. government's official web portal to all federal, state and local government web resources and services.